KHOB/HOB METAR and TAF weather

Enter ICAO airport designator
Station Type Date Time Source
KHOB METAR 2020/04/01 23:50 UTC NOAA

KHOB 012350Z 18020KT 10SM SKC 25/M01 A2975


Station Type Date Time Source
KHOB Decoded METAR 2020/04/01 23:50 UTC NOAA

Hobbs / Lea County, NM, United States (KHOB) 32-41N 103-13W
Apr 01, 2020 - 07:50 PM EDT / 2020.04.01 2350 UTC
Wind: from the S (180 degrees) at 23 MPH (20 KT):0
Visibility: 10 mile(s):0
Sky conditions: clear
Temperature: 77 F (25 C)
Dew Point: 30 F (-1 C)
Relative Humidity: 17%
Pressure (altimeter): 29.75 in. Hg (1007 hPa)
ob: KHOB 012350Z 18020KT 10SM SKC 25/M01 A2975
cycle: 0

Station Type Date Time Source
KHOB TAF 2020/04/01 18:33 UTC NOAA

TAF KHOB 011730Z 0118/0218 19012KT P6SM BKN150 OVC250
FM012100 20018G25KT P6SM SCT150 BKN250
FM020600 18010KT P6SM SCT250

Example: see airport list